createdAt,value
2016-12-11T00:00:16.733Z,91
2016-12-11T00:01:22.736Z,91
2016-12-11T00:02:28.732Z,91
2016-12-11T00:03:34.741Z,91
2016-12-11T00:04:40.743Z,91
2016-12-11T00:05:46.740Z,91
2016-12-11T00:06:52.736Z,91
2016-12-11T00:07:58.730Z,91
2016-12-11T00:09:04.726Z,91
2016-12-11T00:10:10.721Z,91
2016-12-11T00:11:16.720Z,91
2016-12-11T00:12:22.715Z,91
2016-12-11T00:13:28.723Z,91
2016-12-11T00:14:34.723Z,91
2016-12-11T00:15:40.723Z,91
2016-12-11T00:16:46.715Z,91
2016-12-11T00:17:52.720Z,91
2016-12-11T00:18:58.717Z,91
2016-12-11T00:20:04.718Z,91
2016-12-11T00:21:10.718Z,91
2016-12-11T00:22:16.727Z,91
2016-12-11T00:23:22.719Z,91
2016-12-11T00:24:28.721Z,91
2016-12-11T00:25:34.730Z,91
2016-12-11T00:26:40.722Z,91
2016-12-11T00:27:46.720Z,91
2016-12-11T00:28:52.715Z,91
2016-12-11T00:29:58.725Z,91
2016-12-11T00:31:04.719Z,91
2016-12-11T00:32:10.714Z,91
2016-12-11T00:33:16.714Z,91
2016-12-11T00:34:22.714Z,91
2016-12-11T00:35:28.710Z,91
2016-12-11T00:36:34.699Z,91
2016-12-11T00:37:40.704Z,91
2016-12-11T00:38:46.708Z,91
2016-12-11T00:39:52.713Z,91
2016-12-11T00:40:58.705Z,90
2016-12-11T00:42:04.712Z,90
2016-12-11T00:43:10.710Z,91
2016-12-11T00:44:16.711Z,91
2016-12-11T00:45:22.698Z,91
2016-12-11T00:46:28.707Z,91
2016-12-11T00:47:34.703Z,90
2016-12-11T00:48:40.701Z,90
2016-12-11T00:49:46.708Z,90
2016-12-11T00:50:52.712Z,90
2016-12-11T00:51:58.709Z,90
2016-12-11T00:53:04.712Z,90
2016-12-11T00:54:10.719Z,90
2016-12-11T00:55:16.719Z,90
2016-12-11T00:56:22.727Z,90
2016-12-11T00:57:28.726Z,90
2016-12-11T00:58:34.724Z,90
2016-12-11T00:59:40.721Z,90
2016-12-11T01:00:46.717Z,90
2016-12-11T01:01:51.616Z,90
2016-12-11T01:02:57.621Z,90
2016-12-11T01:04:03.628Z,90
2016-12-11T01:05:08.525Z,90
2016-12-11T01:06:14.519Z,90
2016-12-11T01:07:20.522Z,90
2016-12-11T01:08:26.529Z,90
2016-12-11T01:09:32.525Z,90
2016-12-11T01:10:38.523Z,90
2016-12-11T01:11:44.529Z,90
2016-12-11T01:12:50.525Z,90
2016-12-11T01:13:56.522Z,90
2016-12-11T01:15:02.520Z,90
2016-12-11T01:16:08.524Z,90
2016-12-11T01:17:14.532Z,90
2016-12-11T01:18:20.526Z,90
2016-12-11T01:19:26.529Z,90
2016-12-11T01:20:32.532Z,90
2016-12-11T01:21:38.531Z,90
2016-12-11T01:22:44.535Z,90
2016-12-11T01:23:50.537Z,90
2016-12-11T01:24:56.529Z,90
2016-12-11T01:26:02.531Z,90
2016-12-11T01:27:08.531Z,90
2016-12-11T01:28:14.530Z,90
2016-12-11T01:29:20.528Z,90
2016-12-11T01:30:26.522Z,90
2016-12-11T01:31:32.526Z,90
2016-12-11T01:32:38.528Z,90
2016-12-11T01:33:44.527Z,90
2016-12-11T01:34:50.527Z,90
2016-12-11T01:35:56.531Z,90
2016-12-11T01:37:02.528Z,90
2016-12-11T01:38:08.527Z,90
2016-12-11T01:39:14.526Z,90
2016-12-11T01:40:20.527Z,90
2016-12-11T01:41:26.527Z,90
2016-12-11T01:42:32.525Z,90
2016-12-11T01:43:38.526Z,90
2016-12-11T01:44:44.516Z,90
2016-12-11T01:45:50.516Z,90
2016-12-11T01:46:56.514Z,90
2016-12-11T01:48:02.509Z,90
2016-12-11T01:49:08.508Z,90
2016-12-11T01:50:14.509Z,90
2016-12-11T01:51:20.510Z,90
2016-12-11T01:52:26.508Z,90
2016-12-11T01:53:32.514Z,90
2016-12-11T01:54:38.505Z,90
2016-12-11T01:55:44.499Z,90
2016-12-11T01:56:50.497Z,90
2016-12-11T01:57:56.505Z,90
2016-12-11T01:59:02.497Z,90
2016-12-11T02:00:08.497Z,90
2016-12-11T02:01:14.499Z,90
2016-12-11T02:02:20.507Z,90
2016-12-11T02:03:26.496Z,90
2016-12-11T02:04:32.492Z,90
2016-12-11T02:05:38.503Z,90
2016-12-11T02:06:44.505Z,90
2016-12-11T02:07:50.509Z,90
2016-12-11T02:08:56.501Z,90
2016-12-11T02:10:02.498Z,90
2016-12-11T02:11:08.496Z,90
2016-12-11T02:12:14.492Z,90
2016-12-11T02:13:20.489Z,90
2016-12-11T02:14:26.487Z,90
2016-12-11T02:15:32.488Z,90
2016-12-11T02:16:38.487Z,90
2016-12-11T02:17:44.492Z,90
2016-12-11T02:18:50.499Z,90
2016-12-11T02:19:56.496Z,90
2016-12-11T02:21:02.494Z,90
2016-12-11T02:22:08.499Z,90
2016-12-11T02:23:14.490Z,90
2016-12-11T02:24:20.491Z,90
2016-12-11T02:25:26.485Z,90
2016-12-11T02:26:32.495Z,91
2016-12-11T02:27:38.495Z,90
2016-12-11T02:28:44.492Z,90
2016-12-11T02:29:50.487Z,90
2016-12-11T02:30:56.486Z,91
2016-12-11T02:32:02.476Z,91
2016-12-11T02:33:08.476Z,91
2016-12-11T02:34:14.473Z,91
2016-12-11T02:35:20.486Z,90
2016-12-11T02:36:26.466Z,91
2016-12-11T02:37:32.472Z,91
2016-12-11T02:38:38.463Z,91
2016-12-11T02:39:44.466Z,91
2016-12-11T02:40:50.462Z,91
2016-12-11T02:41:56.458Z,91
2016-12-11T02:43:02.456Z,91
2016-12-11T02:44:08.457Z,91
2016-12-11T02:45:14.451Z,91
2016-12-11T02:46:20.454Z,91
2016-12-11T02:47:26.456Z,91
2016-12-11T02:48:32.459Z,91
2016-12-11T02:49:38.454Z,91
2016-12-11T02:50:44.456Z,91
2016-12-11T02:51:50.462Z,91
2016-12-11T02:52:56.461Z,91
2016-12-11T02:54:02.453Z,91
2016-12-11T02:55:08.450Z,91
2016-12-11T02:56:14.453Z,91
2016-12-11T02:57:20.446Z,91
2016-12-11T02:58:26.445Z,91
2016-12-11T02:59:32.452Z,91
2016-12-11T03:00:38.462Z,91
2016-12-11T03:01:44.458Z,91
2016-12-11T03:02:50.452Z,91
2016-12-11T03:03:56.455Z,91
2016-12-11T03:05:02.456Z,91
2016-12-11T03:06:08.454Z,91
2016-12-11T03:07:14.460Z,91
2016-12-11T03:08:20.455Z,91
2016-12-11T03:09:26.455Z,91
2016-12-11T03:10:32.459Z,91
2016-12-11T03:11:38.457Z,91
2016-12-11T03:12:44.458Z,91
2016-12-11T03:13:50.455Z,91
2016-12-11T03:14:56.452Z,91
2016-12-11T03:16:02.450Z,91
2016-12-11T03:17:08.452Z,91
2016-12-11T03:18:14.459Z,91
2016-12-11T03:19:20.457Z,91
2016-12-11T03:20:26.455Z,91
2016-12-11T03:21:32.462Z,91
2016-12-11T03:22:38.457Z,91
2016-12-11T03:23:44.455Z,91
2016-12-11T03:24:50.451Z,91
2016-12-11T03:25:56.459Z,91
2016-12-11T03:27:02.459Z,91
2016-12-11T03:28:08.461Z,91
2016-12-11T03:29:14.458Z,91
2016-12-11T03:30:20.462Z,91
2016-12-11T03:31:26.457Z,91
2016-12-11T03:32:32.459Z,91
2016-12-11T03:33:38.459Z,91
2016-12-11T03:34:44.469Z,91
2016-12-11T03:35:50.468Z,91
2016-12-11T03:36:56.471Z,91
2016-12-11T03:38:02.472Z,91
2016-12-11T03:39:08.473Z,91
2016-12-11T03:40:14.468Z,91
2016-12-11T03:41:20.459Z,91
2016-12-11T03:42:26.463Z,91
2016-12-11T03:43:32.458Z,91
2016-12-11T03:44:38.453Z,91
2016-12-11T03:45:44.460Z,91
2016-12-11T03:46:50.465Z,91
2016-12-11T03:47:56.466Z,91
2016-12-11T03:49:02.462Z,91
2016-12-11T03:50:08.468Z,91
2016-12-11T03:51:14.466Z,91
2016-12-11T03:52:20.465Z,91
2016-12-11T03:53:26.463Z,91
2016-12-11T03:54:32.471Z,91
2016-12-11T03:55:38.465Z,91
2016-12-11T03:56:44.464Z,91
2016-12-11T03:57:50.466Z,91
2016-12-11T03:58:56.476Z,91
2016-12-11T04:00:02.472Z,91
2016-12-11T04:01:08.467Z,91
2016-12-11T04:02:14.468Z,91
2016-12-11T04:03:20.478Z,91
2016-12-11T04:04:26.480Z,91
2016-12-11T04:05:32.485Z,91
2016-12-11T04:06:38.478Z,91
2016-12-11T04:07:44.480Z,91
2016-12-11T04:08:50.479Z,91
2016-12-11T04:09:56.477Z,91
2016-12-11T04:11:02.475Z,91
2016-12-11T04:12:08.476Z,91
2016-12-11T04:13:14.473Z,91
2016-12-11T04:14:20.468Z,91
2016-12-11T04:15:26.474Z,91
2016-12-11T04:16:32.480Z,91
2016-12-11T04:17:38.479Z,91
2016-12-11T04:18:44.476Z,90
2016-12-11T04:19:50.482Z,90
2016-12-11T04:20:56.485Z,90
2016-12-11T04:22:02.476Z,90
2016-12-11T04:23:08.481Z,90
2016-12-11T04:24:14.482Z,90
2016-12-11T04:25:20.478Z,90
2016-12-11T04:26:26.472Z,90
2016-12-11T04:27:32.483Z,90
2016-12-11T04:28:38.480Z,90
2016-12-11T04:29:44.477Z,90
2016-12-11T04:30:50.471Z,90
2016-12-11T04:31:56.473Z,90
2016-12-11T04:33:02.468Z,90
2016-12-11T04:34:08.465Z,90
2016-12-11T04:35:14.457Z,90
2016-12-11T04:36:20.461Z,90
2016-12-11T04:37:26.453Z,90
2016-12-11T04:38:32.450Z,90
2016-12-11T04:39:38.453Z,90
2016-12-11T04:40:44.452Z,90
2016-12-11T04:41:50.449Z,90
2016-12-11T04:42:56.452Z,90
2016-12-11T04:44:02.455Z,90
2016-12-11T04:45:08.457Z,90
2016-12-11T04:46:14.457Z,90
2016-12-11T04:47:20.454Z,90
2016-12-11T04:48:26.453Z,90
2016-12-11T04:49:32.458Z,90
2016-12-11T04:50:38.445Z,90
2016-12-11T04:51:44.437Z,90
2016-12-11T04:52:50.434Z,90
2016-12-11T04:53:56.439Z,90
2016-12-11T04:55:02.427Z,90
2016-12-11T04:56:08.428Z,90
2016-12-11T04:57:14.426Z,90
2016-12-11T04:58:20.433Z,90
2016-12-11T04:59:26.434Z,90
2016-12-11T05:00:32.448Z,90
2016-12-11T05:01:38.451Z,90
2016-12-11T05:02:44.424Z,90
2016-12-11T05:03:50.423Z,90
2016-12-11T05:04:56.420Z,90
2016-12-11T05:06:02.423Z,90
2016-12-11T05:07:08.423Z,90
2016-12-11T05:08:14.427Z,90
2016-12-11T05:09:20.418Z,90
2016-12-11T05:10:26.413Z,90
2016-12-11T05:11:32.399Z,90
2016-12-11T05:12:38.395Z,90
2016-12-11T05:13:44.404Z,90
2016-12-11T05:14:50.405Z,90
2016-12-11T05:15:56.399Z,90
2016-12-11T05:17:02.392Z,90
2016-12-11T05:18:08.400Z,90
2016-12-11T05:19:14.392Z,90
2016-12-11T05:20:20.384Z,90
2016-12-11T05:21:26.376Z,90
2016-12-11T05:22:32.386Z,90
2016-12-11T05:23:38.377Z,90
2016-12-11T05:24:44.378Z,90
2016-12-11T05:25:50.378Z,90
2016-12-11T05:26:56.380Z,90
2016-12-11T05:28:02.376Z,90
2016-12-11T05:29:08.376Z,90
2016-12-11T05:30:14.374Z,89
2016-12-11T05:31:20.368Z,89
2016-12-11T05:32:26.364Z,89
2016-12-11T05:33:32.366Z,89
2016-12-11T05:34:38.352Z,89
2016-12-11T05:35:44.350Z,89
2016-12-11T05:36:50.349Z,89
2016-12-11T05:37:56.343Z,89
2016-12-11T05:39:02.348Z,89
2016-12-11T05:40:08.340Z,89
2016-12-11T05:41:14.335Z,89
2016-12-11T05:42:20.334Z,89
2016-12-11T05:43:26.329Z,89
2016-12-11T05:44:32.330Z,89
2016-12-11T05:45:38.323Z,89
2016-12-11T05:46:44.322Z,89
2016-12-11T05:47:50.321Z,89
2016-12-11T05:48:56.316Z,89
2016-12-11T05:50:02.312Z,89
2016-12-11T05:51:08.308Z,89
2016-12-11T05:52:14.310Z,89
2016-12-11T05:53:20.312Z,88
2016-12-11T05:54:26.310Z,88
2016-12-11T05:55:32.303Z,88
2016-12-11T05:56:38.305Z,88
2016-12-11T05:57:44.302Z,88
2016-12-11T05:58:50.296Z,88
2016-12-11T05:59:56.288Z,88
2016-12-11T06:01:02.298Z,88
2016-12-11T06:02:08.296Z,88
2016-12-11T06:03:14.295Z,88
2016-12-11T06:04:20.283Z,88
2016-12-11T06:05:26.284Z,88
2016-12-11T06:06:32.277Z,88
2016-12-11T06:07:38.275Z,88
2016-12-11T06:08:44.266Z,87
2016-12-11T06:09:50.267Z,87
2016-12-11T06:10:56.266Z,87
2016-12-11T06:12:02.264Z,87
2016-12-11T06:13:08.262Z,87
2016-12-11T06:14:14.266Z,87
2016-12-11T06:15:20.261Z,87
2016-12-11T06:16:26.257Z,86
2016-12-11T06:17:32.259Z,86
2016-12-11T06:18:38.251Z,86
2016-12-11T06:19:44.249Z,86
2016-12-11T06:20:50.240Z,86
2016-12-11T06:21:56.243Z,86
2016-12-11T06:23:02.245Z,86
2016-12-11T06:24:08.241Z,86
2016-12-11T06:25:14.238Z,85
2016-12-11T06:26:20.230Z,84
2016-12-11T06:27:26.227Z,84
2016-12-11T06:28:32.228Z,84
2016-12-11T06:29:38.230Z,84
2016-12-11T06:30:44.232Z,83
2016-12-11T06:31:50.231Z,83
2016-12-11T06:32:56.233Z,83
2016-12-11T06:34:02.232Z,83
2016-12-11T06:35:09.521Z,83
2016-12-11T06:36:15.458Z,83
2016-12-11T06:37:21.451Z,83
2016-12-11T06:38:27.463Z,83
2016-12-11T06:39:33.465Z,83
2016-12-11T06:40:39.461Z,83
2016-12-11T06:41:45.462Z,83
2016-12-11T06:42:51.463Z,83
2016-12-11T06:43:57.467Z,83
2016-12-11T06:45:03.465Z,83
2016-12-11T06:46:09.471Z,83
2016-12-11T06:47:15.467Z,83
2016-12-11T06:48:21.472Z,83
2016-12-11T06:49:27.471Z,83
2016-12-11T06:50:33.467Z,83
2016-12-11T06:51:39.461Z,83
2016-12-11T06:52:45.459Z,83
2016-12-11T06:53:51.455Z,83
2016-12-11T06:54:57.454Z,83
2016-12-11T06:56:03.450Z,83
2016-12-11T06:57:09.443Z,83
2016-12-11T06:58:15.442Z,83
2016-12-11T06:59:21.449Z,83
2016-12-11T07:00:27.459Z,83
2016-12-11T07:01:33.474Z,83
2016-12-11T07:03:14.503Z,83
2016-12-11T07:04:21.784Z,83
2016-12-11T07:05:27.832Z,83
2016-12-11T07:06:33.819Z,83
2016-12-11T07:07:39.840Z,82
2016-12-11T07:08:45.846Z,82
2016-12-11T07:09:51.929Z,82
2016-12-11T07:10:57.926Z,82
2016-12-11T07:12:03.977Z,82
2016-12-11T07:13:10.035Z,82
2016-12-11T07:14:19.950Z,82
2016-12-11T07:15:23.939Z,82
2016-12-11T07:16:29.946Z,82
2016-12-11T07:17:35.955Z,82
2016-12-11T07:18:41.952Z,82
2016-12-11T07:19:47.948Z,82
2016-12-11T07:20:53.951Z,82
2016-12-11T07:21:59.959Z,82
2016-12-11T07:23:05.949Z,82
2016-12-11T07:24:11.947Z,82
2016-12-11T07:25:17.944Z,82
2016-12-11T07:26:23.956Z,82
2016-12-11T07:27:30.040Z,82
2016-12-11T07:28:36.041Z,82
2016-12-11T07:29:42.078Z,82
2016-12-11T07:30:48.088Z,82
2016-12-11T07:31:54.100Z,82
2016-12-11T07:33:00.098Z,82
2016-12-11T07:34:06.188Z,82
2016-12-11T07:35:12.180Z,82
2016-12-11T07:36:18.180Z,82
2016-12-11T07:37:24.178Z,82
2016-12-11T07:38:30.177Z,82
2016-12-11T07:39:36.175Z,82
2016-12-11T07:40:42.176Z,82
2016-12-11T07:41:48.172Z,81
2016-12-11T07:42:54.178Z,81
2016-12-11T07:44:00.271Z,81
2016-12-11T07:45:06.272Z,81
2016-12-11T07:46:12.283Z,82
2016-12-11T07:47:18.266Z,82
2016-12-11T07:48:24.258Z,82
2016-12-11T07:49:30.257Z,82
2016-12-11T07:50:36.265Z,81
2016-12-11T07:51:42.251Z,81
2016-12-11T07:52:48.259Z,81
2016-12-11T07:53:54.258Z,81
2016-12-11T07:55:00.264Z,81
2016-12-11T07:56:06.256Z,81
2016-12-11T07:57:12.254Z,81
2016-12-11T07:58:18.253Z,81
2016-12-11T07:59:24.262Z,81
2016-12-11T08:00:30.295Z,81
2016-12-11T08:01:36.299Z,81
2016-12-11T08:02:42.573Z,81
2016-12-11T08:03:48.577Z,81
2016-12-11T08:04:54.576Z,81
2016-12-11T08:06:00.591Z,81
2016-12-11T08:07:06.590Z,81
2016-12-11T08:08:12.600Z,81
2016-12-11T08:09:18.598Z,81
2016-12-11T08:10:24.600Z,81
2016-12-11T08:11:30.603Z,81
2016-12-11T08:12:36.730Z,81
2016-12-11T08:13:42.726Z,81
2016-12-11T08:14:48.731Z,81
2016-12-11T08:15:54.824Z,81
2016-12-11T08:17:00.807Z,80
2016-12-11T08:18:06.815Z,80
2016-12-11T08:19:12.836Z,80
2016-12-11T08:20:18.835Z,81
2016-12-11T08:21:24.840Z,81
2016-12-11T08:22:30.844Z,81
2016-12-11T08:23:36.846Z,81
2016-12-11T08:24:42.847Z,81
2016-12-11T08:25:48.841Z,81
2016-12-11T08:26:54.837Z,81
2016-12-11T08:28:00.936Z,81
2016-12-11T08:29:06.946Z,81
2016-12-11T08:30:12.941Z,81
2016-12-11T08:31:19.262Z,81
2016-12-11T08:32:25.011Z,81
2016-12-11T08:33:31.015Z,81
2016-12-11T08:34:37.012Z,81
2016-12-11T08:35:43.058Z,81
2016-12-11T08:36:49.092Z,81
2016-12-11T08:37:55.119Z,81
2016-12-11T08:39:01.121Z,81
2016-12-11T08:40:07.132Z,81
2016-12-11T08:41:13.128Z,81
2016-12-11T08:42:19.172Z,81
2016-12-11T08:43:25.183Z,81
2016-12-11T08:44:31.190Z,81
2016-12-11T08:45:37.255Z,81
2016-12-11T08:46:43.257Z,81
2016-12-11T08:47:49.255Z,81
2016-12-11T08:48:55.255Z,81
2016-12-11T08:50:01.265Z,81
2016-12-11T08:51:07.267Z,81
2016-12-11T08:52:13.263Z,81
2016-12-11T08:53:19.260Z,81
2016-12-11T08:54:25.271Z,81
2016-12-11T08:55:31.265Z,81
2016-12-11T08:56:37.266Z,81
2016-12-11T08:57:43.267Z,81
2016-12-11T08:58:49.280Z,81
2016-12-11T08:59:55.274Z,81
2016-12-11T09:01:01.297Z,81
2016-12-11T09:02:07.315Z,81
2016-12-11T09:03:13.320Z,81
2016-12-11T09:04:19.396Z,81
2016-12-11T09:05:25.403Z,81
2016-12-11T09:06:31.412Z,80
2016-12-11T09:07:37.403Z,80
2016-12-11T09:08:43.402Z,80
2016-12-11T09:09:49.410Z,80
2016-12-11T09:10:55.492Z,80
2016-12-11T09:12:01.493Z,80
2016-12-11T09:13:07.499Z,80
2016-12-11T09:14:13.513Z,80
2016-12-11T09:15:19.513Z,80
2016-12-11T09:16:25.512Z,80
2016-12-11T09:17:31.509Z,80
2016-12-11T09:18:37.519Z,79
2016-12-11T09:19:43.515Z,79
2016-12-11T09:20:49.523Z,79
2016-12-11T09:21:55.534Z,79
2016-12-11T09:23:01.590Z,79
2016-12-11T09:24:07.588Z,79
2016-12-11T09:25:13.588Z,79
2016-12-11T09:26:19.591Z,79
2016-12-11T09:27:25.593Z,79
2016-12-11T09:28:31.595Z,79
2016-12-11T09:29:37.592Z,79
2016-12-11T09:30:43.590Z,79
2016-12-11T09:31:49.610Z,79
2016-12-11T09:32:55.610Z,79
2016-12-11T09:34:01.621Z,79
2016-12-11T09:35:07.619Z,79
2016-12-11T09:36:13.641Z,79
2016-12-11T09:37:19.640Z,79
2016-12-11T09:38:25.647Z,79
2016-12-11T09:39:31.647Z,79
2016-12-11T09:40:37.651Z,79
2016-12-11T09:41:43.651Z,79
2016-12-11T09:42:49.656Z,79
2016-12-11T09:43:55.657Z,79
2016-12-11T09:45:01.656Z,79
2016-12-11T09:46:07.650Z,79
2016-12-11T09:47:13.647Z,79
2016-12-11T09:48:19.653Z,79
2016-12-11T09:49:25.648Z,79
2016-12-11T09:50:31.639Z,79
2016-12-11T09:51:37.638Z,79
2016-12-11T09:52:43.634Z,79
2016-12-11T09:53:49.633Z,79
2016-12-11T09:54:55.626Z,79
2016-12-11T09:56:01.630Z,79
2016-12-11T09:57:07.638Z,79
2016-12-11T09:58:13.641Z,79
2016-12-11T09:59:19.632Z,79
2016-12-11T10:00:25.636Z,79
2016-12-11T10:01:31.642Z,79
2016-12-11T10:02:37.652Z,79
2016-12-11T10:03:43.647Z,79
2016-12-11T10:04:49.652Z,79
2016-12-11T10:05:55.655Z,79
2016-12-11T10:07:01.657Z,79
2016-12-11T10:08:07.659Z,79
2016-12-11T10:09:13.670Z,79
2016-12-11T10:10:19.672Z,79
2016-12-11T10:11:25.678Z,79
2016-12-11T10:12:31.683Z,79
2016-12-11T10:13:37.678Z,79
2016-12-11T10:14:43.669Z,79
2016-12-11T10:15:49.669Z,79
2016-12-11T10:16:55.908Z,80
2016-12-11T10:18:01.843Z,80
2016-12-11T10:19:07.834Z,80
2016-12-11T10:20:13.831Z,80
2016-12-11T10:21:19.827Z,79
2016-12-11T10:22:26.109Z,79
2016-12-11T10:23:32.030Z,80
2016-12-11T10:24:38.035Z,80
2016-12-11T10:25:44.039Z,80
2016-12-11T10:26:50.045Z,80
2016-12-11T10:27:56.034Z,80
2016-12-11T10:29:02.042Z,80
2016-12-11T10:30:08.048Z,80
2016-12-11T10:31:14.049Z,80
2016-12-11T10:32:20.046Z,80
2016-12-11T10:33:26.051Z,80
2016-12-11T10:34:32.042Z,80
2016-12-11T10:35:38.041Z,80
2016-12-11T10:36:44.049Z,80
2016-12-11T10:37:50.042Z,80
2016-12-11T10:38:56.044Z,80
2016-12-11T10:40:02.041Z,80
2016-12-11T10:41:08.041Z,80
2016-12-11T10:42:14.051Z,80
2016-12-11T10:43:20.041Z,80
2016-12-11T10:44:26.040Z,80
2016-12-11T10:45:32.041Z,80
2016-12-11T10:46:38.052Z,80
2016-12-11T10:47:44.411Z,80
2016-12-11T10:48:50.330Z,80
2016-12-11T10:49:56.329Z,80
2016-12-11T10:51:02.339Z,80
2016-12-11T10:52:08.330Z,80
2016-12-11T10:53:14.327Z,80
2016-12-11T10:54:20.325Z,80
2016-12-11T10:55:26.340Z,80
2016-12-11T10:56:32.374Z,80
2016-12-11T10:57:38.372Z,80
2016-12-11T10:58:44.371Z,80
2016-12-11T10:59:50.364Z,80
2016-12-11T11:00:56.375Z,80
2016-12-11T11:02:02.371Z,81
2016-12-11T11:03:08.376Z,81
2016-12-11T11:04:14.365Z,81
2016-12-11T11:05:20.365Z,81
2016-12-11T11:06:26.379Z,81
2016-12-11T11:07:32.377Z,81
2016-12-11T11:08:38.380Z,81
2016-12-11T11:09:44.373Z,81
2016-12-11T11:10:50.375Z,81
2016-12-11T11:11:56.380Z,81
2016-12-11T11:13:02.377Z,81
2016-12-11T11:14:08.368Z,81
2016-12-11T11:15:14.372Z,81
2016-12-11T11:16:20.384Z,81
2016-12-11T11:17:26.385Z,81
2016-12-11T11:18:32.384Z,81
2016-12-11T11:19:38.386Z,81
2016-12-11T11:20:44.387Z,81
2016-12-11T11:21:50.387Z,81
2016-12-11T11:22:56.388Z,81
2016-12-11T11:24:02.387Z,81
2016-12-11T11:25:08.384Z,81
2016-12-11T11:26:14.398Z,81
2016-12-11T11:27:20.402Z,81
2016-12-11T11:28:26.411Z,81
2016-12-11T11:29:32.409Z,81
2016-12-11T11:30:38.403Z,80
2016-12-11T11:31:44.408Z,80
2016-12-11T11:32:50.405Z,80
2016-12-11T11:33:56.405Z,80
2016-12-11T11:35:02.402Z,80
2016-12-11T11:36:08.406Z,80
2016-12-11T11:37:14.408Z,80
2016-12-11T11:38:20.406Z,80
2016-12-11T11:39:26.401Z,80
2016-12-11T11:40:32.408Z,80
2016-12-11T11:41:38.421Z,80
2016-12-11T11:42:44.418Z,80
2016-12-11T11:43:50.425Z,80
2016-12-11T11:44:56.429Z,80
2016-12-11T11:46:02.425Z,80
2016-12-11T11:47:08.437Z,80
2016-12-11T11:48:14.426Z,80
2016-12-11T11:49:20.428Z,80
2016-12-11T11:50:26.427Z,80
2016-12-11T11:51:32.423Z,79
2016-12-11T11:52:38.425Z,79
2016-12-11T11:53:44.431Z,79
2016-12-11T11:54:50.439Z,79
2016-12-11T11:55:56.429Z,79
2016-12-11T11:57:02.437Z,79
2016-12-11T11:58:08.440Z,79
2016-12-11T11:59:14.430Z,79
2016-12-11T12:00:20.433Z,79
2016-12-11T12:01:25.688Z,79
2016-12-11T12:02:31.693Z,79
2016-12-11T12:03:37.701Z,79
2016-12-11T12:04:43.696Z,79
2016-12-11T12:05:49.705Z,79
2016-12-11T12:06:55.704Z,78
2016-12-11T12:08:01.693Z,78
2016-12-11T12:09:07.711Z,78
2016-12-11T12:10:13.710Z,78
2016-12-11T12:11:19.704Z,78
2016-12-11T12:12:25.696Z,77
2016-12-11T12:13:31.712Z,77
2016-12-11T12:14:37.705Z,77
2016-12-11T12:15:43.708Z,77
2016-12-11T12:16:49.715Z,77
2016-12-11T12:17:55.715Z,77
2016-12-11T12:19:01.712Z,77
2016-12-11T12:20:07.709Z,77
2016-12-11T12:21:13.715Z,77
2016-12-11T12:22:19.707Z,77
2016-12-11T12:23:25.706Z,77
2016-12-11T12:24:31.705Z,77
2016-12-11T12:25:37.710Z,77
2016-12-11T12:26:43.708Z,77
2016-12-11T12:27:49.703Z,76
2016-12-11T12:28:55.705Z,76
2016-12-11T12:30:01.709Z,77
2016-12-11T12:31:07.703Z,76
2016-12-11T12:32:13.704Z,76
2016-12-11T12:33:19.710Z,75
2016-12-11T12:34:25.729Z,75
2016-12-11T12:35:31.730Z,75
2016-12-11T12:36:37.732Z,75
2016-12-11T12:37:43.728Z,75
2016-12-11T12:38:49.731Z,75
2016-12-11T12:39:55.734Z,75
2016-12-11T12:41:01.737Z,75
2016-12-11T12:42:07.733Z,75
2016-12-11T12:43:13.737Z,74
2016-12-11T12:44:19.732Z,74
2016-12-11T12:45:25.899Z,74
2016-12-11T12:46:31.950Z,74
2016-12-11T12:47:37.951Z,74
2016-12-11T12:48:43.947Z,74
2016-12-11T12:49:50.068Z,74
2016-12-11T12:50:56.063Z,74
2016-12-11T12:52:02.067Z,74
2016-12-11T12:53:08.067Z,74
2016-12-11T12:54:14.240Z,74
2016-12-11T12:55:20.113Z,74
2016-12-11T12:56:26.114Z,74
2016-12-11T12:57:32.113Z,74
2016-12-11T12:58:38.116Z,74
2016-12-11T12:59:44.186Z,74
2016-12-11T13:00:50.183Z,75
2016-12-11T13:01:56.179Z,75
2016-12-11T13:03:02.242Z,75
2016-12-11T13:04:08.261Z,74
2016-12-11T13:05:14.245Z,75
2016-12-11T13:06:20.245Z,74
2016-12-11T13:07:26.238Z,74
2016-12-11T13:08:32.477Z,74
2016-12-11T13:09:38.475Z,74
2016-12-11T13:10:44.469Z,75
2016-12-11T13:11:50.469Z,75
2016-12-11T13:12:56.472Z,75
2016-12-11T13:14:02.543Z,75
2016-12-11T13:15:08.781Z,75
2016-12-11T13:16:14.587Z,75
2016-12-11T13:17:20.591Z,75
2016-12-11T13:18:26.581Z,75
2016-12-11T13:19:32.664Z,75
2016-12-11T13:20:38.661Z,75
2016-12-11T13:21:44.660Z,75
2016-12-11T13:22:49.563Z,75
2016-12-11T13:23:55.562Z,75
2016-12-11T13:25:01.831Z,75
2016-12-11T13:26:07.841Z,75
2016-12-11T13:27:13.837Z,75
2016-12-11T13:28:19.842Z,75
2016-12-11T13:29:25.831Z,75
2016-12-11T13:30:31.840Z,75
2016-12-11T13:31:37.837Z,75
2016-12-11T13:32:43.836Z,75
2016-12-11T13:33:49.877Z,75
2016-12-11T13:34:55.888Z,75
2016-12-11T13:36:01.885Z,75
2016-12-11T13:37:07.883Z,75
2016-12-11T13:38:13.896Z,75
2016-12-11T13:39:19.890Z,75
2016-12-11T13:40:25.895Z,75
2016-12-11T13:41:31.897Z,75
2016-12-11T13:42:37.903Z,75
2016-12-11T13:43:43.903Z,75
2016-12-11T13:44:49.906Z,75
2016-12-11T13:45:55.909Z,75
2016-12-11T13:47:01.915Z,75
2016-12-11T13:48:07.905Z,75
2016-12-11T13:49:13.913Z,75
2016-12-11T13:50:19.157Z,75
2016-12-11T13:51:25.196Z,75
2016-12-11T13:52:31.193Z,75
2016-12-11T13:53:37.413Z,75
2016-12-11T13:54:43.406Z,75
2016-12-11T13:55:49.548Z,75
2016-12-11T13:56:55.545Z,75
2016-12-11T13:58:01.553Z,75
2016-12-11T13:59:07.545Z,75
2016-12-11T14:00:13.544Z,75
2016-12-11T14:01:19.552Z,75
2016-12-11T14:02:25.551Z,75
2016-12-11T14:03:31.562Z,74
2016-12-11T14:04:37.614Z,74
2016-12-11T14:05:43.619Z,74
2016-12-11T14:06:49.739Z,74
2016-12-11T14:07:55.751Z,74
2016-12-11T14:09:01.756Z,74
2016-12-11T14:10:07.759Z,74
2016-12-11T14:11:13.823Z,74
2016-12-11T14:12:19.823Z,74
2016-12-11T14:13:25.909Z,74
2016-12-11T14:14:31.911Z,74
2016-12-11T14:15:37.918Z,74
2016-12-11T14:16:43.921Z,74
2016-12-11T14:17:49.918Z,74
2016-12-11T14:18:55.920Z,75
2016-12-11T14:20:01.915Z,74
2016-12-11T14:21:07.909Z,75
2016-12-11T14:22:13.928Z,75
2016-12-11T14:23:19.934Z,75
2016-12-11T14:24:25.937Z,75
2016-12-11T14:25:31.932Z,75
2016-12-11T14:26:37.931Z,75
2016-12-11T14:27:43.936Z,75
2016-12-11T14:28:49.939Z,75
2016-12-11T14:29:55.940Z,75
2016-12-11T14:31:02.006Z,75
2016-12-11T14:32:08.013Z,75
2016-12-11T14:33:14.008Z,75
2016-12-11T14:34:19.999Z,75
2016-12-11T14:35:26.005Z,75
2016-12-11T14:36:32.004Z,75
2016-12-11T14:37:38.001Z,75
2016-12-11T14:38:44.000Z,75
2016-12-11T14:39:50.001Z,75
2016-12-11T14:40:56.000Z,75
2016-12-11T14:42:01.996Z,75
2016-12-11T14:43:07.995Z,75
2016-12-11T14:44:14.003Z,74
2016-12-11T14:45:20.006Z,74
2016-12-11T14:46:26.004Z,74
2016-12-11T14:47:32.001Z,75
2016-12-11T14:48:37.994Z,74
2016-12-11T14:49:43.991Z,74
2016-12-11T14:50:49.988Z,74
2016-12-11T14:51:55.984Z,74
2016-12-11T14:53:09.133Z,74
2016-12-11T14:54:15.133Z,74
2016-12-11T14:55:21.129Z,74
2016-12-11T14:56:27.139Z,74
2016-12-11T14:57:33.141Z,74
2016-12-11T14:58:39.138Z,74
2016-12-11T14:59:45.134Z,74
2016-12-11T15:00:51.135Z,74
2016-12-11T15:01:57.133Z,75
2016-12-11T15:03:03.146Z,75
2016-12-11T15:04:09.136Z,75
2016-12-11T15:05:15.140Z,75
2016-12-11T15:06:21.148Z,75
2016-12-11T15:07:27.140Z,75
2016-12-11T15:08:33.144Z,75
2016-12-11T15:09:39.207Z,75
2016-12-11T15:10:45.210Z,75
2016-12-11T15:11:51.201Z,75
2016-12-11T15:12:57.226Z,75
2016-12-11T15:14:03.218Z,75
2016-12-11T15:15:09.217Z,75
2016-12-11T15:16:15.211Z,75
2016-12-11T15:17:21.220Z,75
2016-12-11T15:18:27.220Z,74
2016-12-11T15:19:33.224Z,74
2016-12-11T15:20:39.215Z,74
2016-12-11T15:21:45.217Z,74
2016-12-11T15:22:51.214Z,74
2016-12-11T15:23:57.220Z,74
2016-12-11T15:25:03.217Z,74
2016-12-11T15:26:09.222Z,74
2016-12-11T15:27:15.227Z,74
2016-12-11T15:28:21.225Z,75
2016-12-11T15:29:27.230Z,75
2016-12-11T15:30:33.227Z,75
2016-12-11T15:31:39.229Z,75
2016-12-11T15:32:45.226Z,75
2016-12-11T15:33:51.233Z,75
2016-12-11T15:34:57.225Z,75
2016-12-11T15:36:03.231Z,75
2016-12-11T15:37:09.232Z,75
2016-12-11T15:38:15.234Z,75
2016-12-11T15:39:21.225Z,75
2016-12-11T15:40:27.232Z,75
2016-12-11T15:41:33.234Z,75